Antananarivo, Madagascar

12:39 PM EAT on October 20, 2014 (GMT +0300)
Ivato | Change Station
CLOSE
Current Station
Airport
Location: Antananarivo,
Elevation: 4186 ft
Nearby Weather Stations

Elev 4186 ft 18.80 °S, 47.48 °E | Updated 9 minutes ago

Scattered Clouds
Scattered Clouds
84 °F
Feels Like 85 °F
N
10
Wind Variable Wind from NW

Today
High -- | Low -- °F
--% Chance of Precip.
Yesterday
High -- | Low -- °F
Precip. -- in
5:17 AM 5:52 PM
Waning Crescent, 12% visible
Pressure 30.06 in
Visibility 6.2 miles
Clouds Mostly Cloudy 2000 ft
Scattered Clouds 10000 ft
Heat Index 85 °F
Dew Point 63 °F
Humidity 48%
Rainfall 0.00 in
Snow Depth Not available.
UV 13 out of 12
Pollen Not available.
Air Quality Not available.
Flu Activity Not available.
METAR FMMI 200930Z 32009KT 260V360 9999 BKN020TCU SCT100 29/17 Q1018 NOSIG

More Conditions Fewer Conditions

Pressure 30.06 in
Visibility 6.2 miles
Clouds Mostly Cloudy 2000 ft
Scattered Clouds 10000 ft
Heat Index 85 °F
Dew Point 63 °F
Humidity 48%
Rainfall 0.00 in
Snow Depth Not available.
UV 13 out of 12
Pollen Not available.
Air Quality Not available.
Flu Activity Not available.
METAR FMMI 200930Z 32009KT 260V360 9999 BKN020TCU SCT100 29/17 Q1018 NOSIG

More Conditions Fewer Conditions

10-Day Weather Forecast

Almanac

Astronomy

Oct. 20, 2014 Rise Set
Actual Time 5:17 AM EAT 5:52 PM EAT
Civil Twilight 4:54 AM EAT 6:15 PM EAT
Nautical Twilight 4:28 AM EAT 6:41 PM EAT
Astronomical Twilight 4:02 AM EAT 7:07 PM EAT
Moon 2:52 AM EAT 3:04 PM EAT
Length of Visible Light 13h 20m
Length of Day
12h 35m
Tomorrow will be 1m 2s longer.
Waning Crescent, 12% of the Moon is Illuminated
Today
Waning Crescent
Oct 23
New
Oct 30
First Quarter
Nov 6
Full
Nov 14
Last Quarter

Yesterday's Extremes

Country Highs Country Lows

Community

WunderPhotos

Upload Photos

1,763,325 photos uploaded!

Nearby

Snow Depth

Not available.

Earthquake Activity

City Distance Mag. Time & Date
No recent earthquake activity has been reported nearby.
Minimum magnitude displayed is 2.5.

Coastal Water Temperatures

Place Temperature
No Stations Reporting

Nearby Weather Stations